Time;durP1;ratioP1;P1;durP2;ratioP2;P2;SDS_P1;SDS_P2;PMS_P1;PMS_P2;Temp;Humidity;BMP_temperature;BMP_pressure;BME280_temperature;BME280_humidity;BME280_pressure;Samples;Min_cycle;Max_cycle;Signal;HPM_P1;HPM_P2
2022/10/29 00:02:18;;;;;;;;;15.50;15.50;;;;;19.78;67.56;101358.41;4970003;28;45631;-62
2022/10/29 00:04:44;;;;;;;;;22.00;16.25;;;;;19.25;67.37;101288.41;4975409;28;46151;-62
2022/10/29 00:07:09;;;;;;;;;18.25;16.75;;;;;19.58;67.21;101322.78;4975401;28;45414;-61
2022/10/29 00:09:35;;;;;;;;;21.50;17.00;;;;;19.78;67.56;101366.78;4975749;28;45553;-61
2022/10/29 00:12:00;;;;;;;;;20.25;15.75;;;;;19.59;67.56;101326.44;4979431;28;45780;-61
2022/10/29 00:14:26;;;;;;;;;18.25;16.25;;;;;19.77;67.66;101339.16;4977109;28;48453;-61
2022/10/29 00:16:51;;;;;;;;;14.00;14.00;;;;;19.59;67.51;101299.41;4977726;28;45326;-65
2022/10/29 00:19:17;;;;;;;;;15.50;14.75;;;;;19.75;67.44;101325.50;4978693;28;45337;-63
2022/10/29 00:21:42;;;;;;;;;16.50;16.50;;;;;19.76;67.40;101316.03;4978087;28;45334;-62
2022/10/29 00:24:08;;;;;;;;;18.25;15.50;;;;;19.76;67.23;101309.66;4977183;28;46382;-61
2022/10/29 00:26:34;;;;;;;;;15.60;15.20;;;;;19.77;67.52;101317.75;4977200;28;45359;-61
2022/10/29 00:28:59;;;;;;;;;16.00;15.00;;;;;19.80;67.27;101326.69;4977453;28;45430;-63
2022/10/29 00:31:25;;;;;;;;;16.75;13.75;;;;;19.61;67.46;101297.22;4978681;28;45572;-63
2022/10/29 00:33:51;;;;;;;;;21.50;18.50;;;;;19.83;67.19;101320.56;4978018;28;46601;-62
2022/10/29 00:36:22;;;;;;;;;20.40;16.20;;;;;19.82;67.32;101325.31;4978225;28;45364;-62
2022/10/29 00:38:47;;;;;;;;;17.40;14.20;;;;;19.81;67.14;101306.94;4978556;28;45367;-63
2022/10/29 00:41:15;;;;;;;;;21.75;19.50;;;;;19.79;67.52;101311.91;4978250;28;45418;-62
2022/10/29 00:43:44;;;;;;;;;16.60;14.00;;;;;19.78;67.29;101299.94;4977898;28;46187;-61
2022/10/29 00:46:29;;;;;;;;;18.80;18.80;;;;;19.75;67.51;101302.41;4961015;28;45446;-62
2022/10/29 00:48:54;;;;;;;;;17.20;16.00;;;;;19.78;67.38;101311.06;4976803;28;45486;-62
2022/10/29 00:51:20;;;;;;;;;19.00;17.50;;;;;19.78;67.28;101310.22;4977288;28;45381;-62
2022/10/29 00:53:51;;;;;;;;;18.00;16.75;;;;;19.79;67.48;101292.41;4976563;28;45591;-62
2022/10/29 00:56:16;;;;;;;;;33.20;27.60;;;;;19.79;67.30;101292.41;4976763;28;45376;-63
2022/10/29 00:58:42;;;;;;;;;18.00;16.00;;;;;19.76;67.54;101293.75;4960350;28;45269;-62
2022/10/29 01:01:08;;;;;;;;;15.75;15.75;;;;;19.72;67.29;101289.84;4977926;28;45332;-61
2022/10/29 01:03:33;;;;;;;;;17.75;15.00;;;;;19.79;67.51;101278.47;4957011;28;46120;-61
2022/10/29 01:05:59;;;;;;;;;24.25;21.00;;;;;19.79;67.33;101261.78;4972710;28;45654;-64
2022/10/29 01:08:25;;;;;;;;;20.80;18.00;;;;;19.69;67.48;101264.47;4969235;28;45362;-62
2022/10/29 01:10:57;;;;;;;;;19.75;18.75;;;;;19.66;67.63;101265.81;4977570;28;45584;-61
2022/10/29 01:13:57;;;;;;;;;19.60;16.20;;;;;19.69;67.72;101253.31;4977757;28;45646;-62
2022/10/29 01:16:37;;;;;;;;;16.60;16.20;;;;;19.70;67.64;101250.25;4977753;28;45402;-60
2022/10/29 01:19:28;;;;;;;;;18.00;17.00;;;;;19.65;67.46;101244.66;4977516;28;45334;-61
2022/10/29 01:21:59;;;;;;;;;18.00;16.00;;;;;19.70;67.39;101255.00;4976922;28;45311;-62
2022/10/29 01:24:34;;;;;;;;;16.60;16.60;;;;;19.51;67.25;101230.28;4977517;28;45875;-61
2022/10/29 01:27:21;;;;;;;;;21.40;17.80;;;;;19.70;67.27;101255.00;4977337;28;45437;-61
2022/10/29 01:29:49;;;;;;;;;16.00;15.00;;;;;19.71;67.06;101256.69;4977057;28;45385;-60
2022/10/29 01:32:26;;;;;;;;;20.60;17.60;;;;;19.65;66.91;101244.66;4977463;28;45585;-62
2022/10/29 01:35:04;;;;;;;;;19.20;15.80;;;;;19.46;67.09;101216.31;4977094;28;46651;-60
2022/10/29 01:37:39;;;;;;;;;14.40;14.40;;;;;19.50;66.90;101221.09;4976042;28;45458;-62
2022/10/29 01:40:10;;;;;;;;;18.80;16.00;;;;;19.64;66.71;101245.75;4976743;28;45358;-61
2022/10/29 01:42:42;;;;;;;;;13.60;13.00;;;;;19.62;66.89;101236.81;4976498;28;45313;-60
2022/10/29 01:45:17;;;;;;;;;15.60;14.60;;;;;19.54;66.55;101246.47;4975422;28;45410;-60
2022/10/29 01:47:53;;;;;;;;;18.40;14.60;;;;;19.50;66.78;101225.81;4977206;28;45423;-60
2022/10/29 01:50:20;;;;;;;;;14.60;13.40;;;;;19.51;66.59;101221.94;4959727;28;45427;-61
2022/10/29 01:52:45;;;;;;;;;11.40;11.40;;;;;19.34;66.72;101181.13;4976046;28;45615;-63
2022/10/29 01:55:21;;;;;;;;;16.75;13.50;;;;;19.31;66.64;101180.81;4975497;28;46603;-63
2022/10/29 01:57:46;;;;;;;;;15.60;14.60;;;;;19.47;66.24;101198.50;4975614;28;45416;-62
2022/10/29 02:00:16;;;;;;;;;16.25;15.25;;;;;19.44;66.30;101201.81;4975640;28;45426;-62
2022/10/29 02:03:09;;;;;;;;;16.00;14.00;;;;;19.16;66.09;101156.41;4964137;28;45401;-61
2022/10/29 02:05:47;;;;;;;;;14.40;13.20;;;;;19.40;66.43;101175.59;4957322;28;45448;-61
2022/10/29 02:08:15;;;;;;;;;16.20;14.80;;;;;19.39;66.33;101174.78;4956259;28;45937;-63
2022/10/29 02:11:17;;;;;;;;;15.60;13.00;;;;;19.20;66.27;101150.06;4972459;28;45336;-61
2022/10/29 02:13:50;;;;;;;;;6.20;5.80;;;;;19.37;66.14;101172.25;4947936;28;45789;-64
2022/10/29 02:16:15;;;;;;;;;14.00;11.00;;;;;19.16;65.95;101123.03;4956020;28;47405;-64
2022/10/29 02:18:42;;;;;;;;;15.25;14.00;;;;;19.39;66.01;101160.00;4939862;28;45574;-64
2022/10/29 02:21:08;;;;;;;;;15.20;14.80;;;;;19.35;66.05;101157.75;4957182;28;45427;-64
2022/10/29 02:23:33;;;;;;;;;14.50;13.50;;;;;19.36;65.82;101164.16;4957345;28;45905;-64
2022/10/29 02:25:58;;;;;;;;;12.00;12.00;;;;;19.29;65.82;101157.94;4956998;28;45460;-64
2022/10/29 02:28:24;;;;;;;;;13.75;12.25;;;;;19.33;65.69;101161.91;4955438;28;45299;-64
2022/10/29 02:30:49;;;;;;;;;15.25;12.50;;;;;19.11;65.62;101123.81;4957003;28;45396;-64
2022/10/29 02:33:15;;;;;;;;;14.00;12.25;;;;;19.29;65.80;101149.59;4956961;28;45317;-63
2022/10/29 02:35:40;;;;;;;;;16.75;11.25;;;;;19.30;65.42;101151.28;4934376;28;46051;-64
2022/10/29 02:38:06;;;;;;;;;12.50;12.50;;;;;19.30;65.56;101148.50;4976424;28;45355;-64
2022/10/29 02:40:31;;;;;;;;;13.00;12.00;;;;;19.33;65.43;101147.97;4976123;28;45216;-64
2022/10/29 02:42:57;;;;;;;;;18.50;15.75;;;;;19.18;65.54;101118.03;4976841;28;45510;-64
2022/10/29 02:45:22;;;;;;;;;14.25;14.00;;;;;19.33;65.49;101140.47;4976172;28;45441;-64
2022/10/29 02:47:48;;;;;;;;;15.75;14.25;;;;;19.29;65.43;101132.91;4976273;28;45399;-62
2022/10/29 02:50:13;;;;;;;;;15.50;13.50;;;;;19.26;65.38;101139.81;4976418;28;45293;-64
2022/10/29 02:52:39;;;;;;;;;10.75;10.75;;;;;19.24;65.53;101130.91;4958784;28;45393;-64
2022/10/29 02:55:05;;;;;;;;;11.50;11.50;;;;;19.29;65.43;101141.25;4975878;28;45544;-64
2022/10/29 02:57:30;;;;;;;;;14.00;14.00;;;;;19.24;65.44;101136.47;4976135;28;45288;-64
2022/10/29 02:59:56;;;;;;;;;13.50;13.50;;;;;19.18;65.67;101132.81;4976140;28;45367;-64
2022/10/29 03:02:21;;;;;;;;;13.25;13.25;;;;;18.94;65.52;101098.84;4974837;28;45352;-64
2022/10/29 03:04:46;;;;;;;;;14.50;12.50;;;;;19.14;66.26;101125.22;5007116;28;48400;-64
2022/10/29 03:07:12;;;;;;;;;17.75;13.75;;;;;19.13;65.81;101110.47;4976077;28;45917;-64
2022/10/29 03:09:37;;;;;;;;;14.75;13.00;;;;;18.96;65.92;101082.72;4974693;28;45446;-64
2022/10/29 03:12:03;;;;;;;;;9.00;8.75;;;;;18.83;65.59;101068.13;4974826;28;45741;-64
2022/10/29 03:14:28;;;;;;;;;14.75;12.50;;;;;19.14;65.97;101114.09;4974181;28;46725;-63
2022/10/29 03:16:54;;;;;;;;;15.25;10.75;;;;;19.13;65.90;101104.06;4974876;28;45615;-64
2022/10/29 03:19:19;;;;;;;;;16.50;12.25;;;;;18.80;65.75;101057.50;4975865;28;45339;-64
2022/10/29 03:21:45;;;;;;;;;14.25;12.25;;;;;19.12;65.75;101121.88;4975754;28;45362;-64
2022/10/29 03:24:10;;;;;;;;;15.75;11.25;;;;;18.95;65.94;101095.78;4976002;28;46419;-64
2022/10/29 03:26:36;;;;;;;;;14.25;14.25;;;;;18.86;65.78;101068.69;4975761;28;45278;-63
2022/10/29 03:29:01;;;;;;;;;15.50;15.25;;;;;18.94;65.71;101087.72;4975844;28;45366;-63
2022/10/29 03:31:27;;;;;;;;;17.75;13.75;;;;;19.08;65.78;101122.41;4975731;28;45319;-64
2022/10/29 03:33:52;;;;;;;;;12.75;11.25;;;;;19.11;65.61;101121.03;4975531;28;46428;-64
2022/10/29 03:36:18;;;;;;;;;13.25;11.50;;;;;19.08;65.97;101124.31;4975324;28;45415;-64
2022/10/29 03:38:43;;;;;;;;;13.50;11.75;;;;;19.12;65.61;101116.31;4975117;28;45320;-63
2022/10/29 03:41:09;;;;;;;;;15.00;13.75;;;;;19.10;65.85;101120.19;4951707;28;45451;-64
2022/10/29 03:43:38;;;;;;;;;13.00;11.60;;;;;19.07;65.84;101123.50;4954621;28;47289;-64
2022/10/29 03:46:04;;;;;;;;;14.20;13.40;;;;;19.10;65.89;101111.00;4955050;28;45201;-61
2022/10/29 03:48:29;;;;;;;;;14.75;13.50;;;;;19.10;65.64;101102.63;4956197;28;45346;-64
2022/10/29 03:50:55;;;;;;;;;13.25;12.00;;;;;19.05;65.72;101116.50;4955942;28;45587;-61
2022/10/29 03:53:21;;;;;;;;;12.25;11.50;;;;;19.02;65.96;101117.00;4956210;28;45895;-63
2022/10/29 03:55:47;;;;;;;;;13.20;12.20;;;;;19.01;65.71;101110.59;4954333;28;45185;-63
2022/10/29 03:58:12;;;;;;;;;16.50;14.25;;;;;19.00;65.70;101078.31;4954727;28;45391;-64
2022/10/29 04:00:38;;;;;;;;;14.25;14.25;;;;;19.03;65.68;101080.59;4956214;28;45266;-64
2022/10/29 04:03:03;;;;;;;;;13.50;13.50;;;;;19.06;65.73;101088.41;4967418;28;45985;-64
2022/10/29 04:05:29;;;;;;;;;17.00;14.00;;;;;19.00;65.25;101092.22;4975388;28;45449;-64
2022/10/29 04:07:54;;;;;;;;;16.50;13.25;;;;;19.05;65.31;101097.88;4975178;28;45282;-64
2022/10/29 04:10:20;;;;;;;;;19.75;17.25;;;;;19.03;65.41;101121.47;4975551;28;45448;-64
2022/10/29 04:12:45;;;;;;;;;15.00;13.00;;;;;19.02;65.02;101117.88;4974999;28;45883;-63
2022/10/29 04:15:11;;;;;;;;;14.00;13.00;;;;;18.81;65.49;101088.94;4974835;28;45406;-60
2022/10/29 04:17:36;;;;;;;;;15.25;12.00;;;;;18.95;65.37;101120.81;4974092;28;45338;-63
2022/10/29 04:20:02;;;;;;;;;14.00;12.50;;;;;18.92;65.45;101117.72;4975057;28;45470;-63
2022/10/29 04:22:27;;;;;;;;;13.25;11.25;;;;;18.89;65.96;101121.84;4975012;28;45454;-63
2022/10/29 04:24:53;;;;;;;;;17.00;11.75;;;;;18.84;65.48;101121.81;4975035;28;45453;-63
2022/10/29 04:27:19;;;;;;;;;14.25;12.25;;;;;18.75;65.72;101104.72;4973861;28;45435;-60
2022/10/29 04:29:44;;;;;;;;;17.00;16.00;;;;;18.83;65.73;101118.16;4973895;28;45367;-63
2022/10/29 04:32:09;;;;;;;;;12.00;11.75;;;;;18.84;65.51;101105.13;4974611;28;45476;-63
2022/10/29 04:34:35;;;;;;;;;11.50;11.50;;;;;18.59;65.78;101064.78;4975036;28;45359;-61
2022/10/29 04:37:00;;;;;;;;;12.50;12.00;;;;;18.84;65.47;101107.91;4974641;28;45492;-63
2022/10/29 04:39:26;;;;;;;;;12.50;11.75;;;;;18.80;65.60;101092.81;4957181;28;45736;-61
2022/10/29 04:41:51;;;;;;;;;14.00;14.00;;;;;18.70;65.39;101066.56;4973395;28;46841;-63
2022/10/29 04:44:17;;;;;;;;;15.00;14.25;;;;;18.87;65.19;101098.16;4974649;28;45304;-64
2022/10/29 04:46:42;;;;;;;;;12.00;10.75;;;;;18.67;65.28;101075.44;4973520;28;45374;-60
2022/10/29 04:49:08;;;;;;;;;16.00;14.00;;;;;18.87;65.22;101100.94;4974900;28;45301;-64
2022/10/29 04:51:33;;;;;;;;;11.25;11.00;;;;;18.87;65.46;101093.47;4974491;28;45277;-63
2022/10/29 04:53:59;;;;;;;;;14.00;14.00;;;;;18.89;65.60;101096.00;4973574;28;45521;-64
2022/10/29 04:56:24;;;;;;;;;12.50;10.25;;;;;18.81;65.34;101084.22;4974662;28;45491;-63
2022/10/29 04:58:51;;;;;;;;;11.50;11.25;;;;;18.86;65.22;101082.59;4976855;28;45446;-63
2022/10/29 05:01:16;;;;;;;;;13.80;12.20;;;;;18.93;64.96;101089.66;4977740;28;46468;-63
2022/10/29 05:03:42;;;;;;;;;18.00;14.00;;;;;18.95;65.02;101086.59;4960327;28;45372;-63
2022/10/29 05:06:07;;;;;;;;;12.25;10.25;;;;;18.96;65.01;101083.53;4958427;28;45409;-63
2022/10/29 05:08:33;;;;;;;;;16.25;13.25;;;;;18.95;64.66;101075.50;4941010;28;45503;-61
2022/10/29 05:11:02;;;;;;;;;13.00;13.00;;;;;18.97;64.65;101078.84;4958078;28;45674;-63
2022/10/29 05:13:28;;;;;;;;;11.60;11.40;;;;;18.97;64.27;101089.97;4956808;28;45377;-63
2022/10/29 05:15:54;;;;;;;;;12.50;12.50;;;;;18.74;64.44;101050.22;4946704;28;45836;-62
2022/10/29 05:18:19;;;;;;;;;13.50;11.75;;;;;18.76;64.51;101047.16;4976770;28;45382;-62
2022/10/29 05:20:45;;;;;;;;;11.00;11.00;;;;;18.89;64.41;101070.97;5008936;28;48040;-63
2022/10/29 05:23:10;;;;;;;;;11.75;11.75;;;;;18.94;64.18;101080.19;4977660;28;45357;-63
2022/10/29 05:25:37;;;;;;;;;13.75;12.50;;;;;18.91;64.22;101079.88;4977834;28;45826;-63
2022/10/29 05:28:04;;;;;;;;;13.40;9.40;;;;;18.87;64.72;101084.25;4977748;28;45820;-63
2022/10/29 05:30:30;;;;;;;;;13.20;12.60;;;;;18.28;64.51;100978.22;4975932;28;47181;-63
2022/10/29 05:32:55;;;;;;;;;12.00;11.00;;;;;18.87;64.53;101062.88;4977284;28;45267;-63
2022/10/29 05:35:21;;;;;;;;;13.50;11.75;;;;;18.86;64.42;101050.06;4977547;28;45604;-63
2022/10/29 05:37:51;;;;;;;;;11.00;9.75;;;;;18.88;64.63;101052.59;4977620;28;45627;-63
2022/10/29 05:40:17;;;;;;;;;12.40;11.00;;;;;18.89;64.67;101051.50;4977394;28;45414;-63
2022/10/29 05:42:42;;;;;;;;;10.75;10.25;;;;;18.89;64.55;101051.50;4977001;28;45498;-60
2022/10/29 05:45:08;;;;;;;;;9.25;9.25;;;;;18.89;64.77;101045.94;4977785;28;45299;-63
2022/10/29 05:47:34;;;;;;;;;13.20;12.00;;;;;18.87;64.83;101042.56;4977244;28;45375;-63
2022/10/29 05:49:59;;;;;;;;;14.00;12.75;;;;;18.88;64.89;101044.25;4977279;28;46768;-63
2022/10/29 05:52:24;;;;;;;;;13.50;12.00;;;;;18.87;64.78;101042.56;4977002;28;45619;-63
2022/10/29 05:54:50;;;;;;;;;18.50;14.50;;;;;18.80;64.97;101038.03;4977173;28;45284;-63
2022/10/29 05:57:16;;;;;;;;;13.25;12.00;;;;;18.88;64.99;101042.31;4977682;28;45395;-63
2022/10/29 05:59:41;;;;;;;;;11.50;10.75;;;;;18.89;64.93;101040.38;4976680;28;45995;-60
2022/10/29 06:02:08;;;;;;;;;17.75;13.00;;;;;18.69;65.09;101012.06;4972991;28;45191;-63
2022/10/29 06:04:34;;;;;;;;;17.80;14.80;;;;;18.84;65.10;101035.59;4957627;28;45293;-63
2022/10/29 06:06:59;;;;;;;;;9.00;6.25;;;;;18.87;64.90;101034.22;4957634;28;45330;-63
2022/10/29 06:09:25;;;;;;;;;15.25;13.25;;;;;18.75;64.87;101012.97;4957080;28;45507;-63
2022/10/29 06:11:50;;;;;;;;;11.75;11.00;;;;;18.85;64.72;101025.31;4957453;28;46029;-63
2022/10/29 06:14:16;;;;;;;;;15.50;14.00;;;;;18.76;65.09;101022.13;4957686;28;45450;-63
2022/10/29 06:16:41;;;;;;;;;18.00;15.25;;;;;18.82;64.99;101024.72;4956286;28;45442;-62
2022/10/29 06:19:07;;;;;;;;;12.25;11.75;;;;;18.81;64.92;101016.66;4955826;28;46129;-63
2022/10/29 06:21:34;;;;;;;;;19.25;15.50;;;;;18.80;65.02;101010.22;4957321;28;45392;-65
2022/10/29 06:24:00;;;;;;;;;12.40;12.40;;;;;18.79;65.01;101025.25;4957210;28;45407;-62
2022/10/29 06:26:25;;;;;;;;;16.25;14.25;;;;;18.79;65.08;101021.63;4957462;28;45647;-64
2022/10/29 06:28:50;;;;;;;;;16.25;16.25;;;;;18.78;64.93;101039.41;4957094;28;46546;-64
2022/10/29 06:31:16;;;;;;;;;15.50;13.25;;;;;18.79;65.27;101041.09;4957210;28;45324;-60
2022/10/29 06:33:41;;;;;;;;;15.75;13.75;;;;;18.79;65.21;101053.03;4956932;28;45352;-63
2022/10/29 06:36:07;;;;;;;;;17.50;14.75;;;;;18.79;65.15;101055.00;4956986;28;45323;-64
2022/10/29 06:38:32;;;;;;;;;20.00;14.25;;;;;18.69;64.91;101056.53;4957288;28;46615;-61
2022/10/29 06:40:58;;;;;;;;;15.00;15.00;;;;;18.75;65.13;101063.03;4955451;28;45463;-65
2022/10/29 06:43:24;;;;;;;;;13.75;12.75;;;;;18.53;64.96;101007.44;4956886;28;45419;-64
2022/10/29 06:45:49;;;;;;;;;16.00;13.50;;;;;18.69;64.55;101044.59;4957393;28;45650;-64
2022/10/29 06:48:15;;;;;;;;;13.75;13.50;;;;;18.74;65.11;101063.28;4955464;28;46395;-64
2022/10/29 06:50:40;;;;;;;;;18.00;14.25;;;;;18.78;64.68;101062.50;4955351;28;45342;-63
2022/10/29 06:53:06;;;;;;;;;19.00;16.25;;;;;18.72;65.11;101071.88;4955176;28;45450;-64
2022/10/29 06:55:32;;;;;;;;;13.20;12.20;;;;;18.74;64.96;101066.06;4955995;28;45678;-62
2022/10/29 06:57:59;;;;;;;;;14.80;14.40;;;;;18.74;64.65;101060.50;4956518;28;45503;-64
2022/10/29 07:00:26;;;;;;;;;14.40;13.20;;;;;18.76;64.96;101055.50;4956463;28;45352;-64
2022/10/29 07:02:51;;;;;;;;;16.60;15.40;;;;;18.77;64.84;101046.91;4964648;28;45508;-64
2022/10/29 07:05:17;;;;;;;;;21.00;17.25;;;;;18.65;64.88;101022.03;4976239;28;45552;-64
2022/10/29 07:07:43;;;;;;;;;15.25;15.25;;;;;18.75;64.97;101035.22;4928057;28;45420;-63
2022/10/29 07:10:08;;;;;;;;;16.50;15.00;;;;;18.70;64.66;101027.63;4974345;28;45391;-64
2022/10/29 07:12:43;;;;;;;;;16.25;13.75;;;;;18.69;64.62;101034.28;4976060;28;45359;-63
2022/10/29 07:15:09;;;;;;;;;22.00;21.00;;;;;18.72;64.75;101046.84;4974585;28;45304;-61
2022/10/29 07:17:34;;;;;;;;;16.50;16.50;;;;;18.70;64.90;101035.97;4975761;28;46872;-61
2022/10/29 07:20:02;;;;;;;;;20.50;16.25;;;;;18.71;64.73;101039.59;4973360;28;45396;-63
2022/10/29 07:22:28;;;;;;;;;17.40;15.40;;;;;18.72;64.91;101041.28;4975666;28;45437;-63
2022/10/29 07:24:53;;;;;;;;;19.25;15.75;;;;;18.72;64.94;101032.94;4976053;28;45569;-61
2022/10/29 07:27:19;;;;;;;;;16.75;15.00;;;;;18.68;64.80;101020.69;4974183;28;48693;-63
2022/10/29 07:29:44;;;;;;;;;19.00;17.50;;;;;18.70;64.92;101015.69;4974137;28;45575;-63
2022/10/29 07:32:10;;;;;;;;;16.25;14.00;;;;;18.72;64.83;101016.25;4975663;28;45287;-61
2022/10/29 07:34:35;;;;;;;;;17.00;16.00;;;;;18.73;64.70;101017.13;4976008;28;45342;-61
2022/10/29 07:37:01;;;;;;;;;21.25;20.25;;;;;18.63;64.38;101001.16;4975306;28;45419;-62
2022/10/29 07:39:26;;;;;;;;;21.25;16.25;;;;;18.82;64.08;101024.72;4975602;28;45247;-62
2022/10/29 07:41:52;;;;;;;;;19.75;19.50;;;;;18.85;64.06;101025.31;4991128;28;45329;-61
2022/10/29 07:44:17;;;;;;;;;18.00;17.75;;;;;18.88;63.98;101022.84;4974599;28;45306;-62
2022/10/29 07:46:43;;;;;;;;;12.50;11.75;;;;;18.74;63.81;101005.75;4975354;28;45776;-62
2022/10/29 07:49:08;;;;;;;;;14.00;14.00;;;;;18.83;64.03;101009.72;4957950;28;45388;-61
2022/10/29 07:51:34;;;;;;;;;15.00;12.00;;;;;18.91;63.74;101021.47;4974436;28;45376;-62
2022/10/29 07:53:59;;;;;;;;;12.00;10.50;;;;;18.75;63.42;100995.44;4976162;28;45676;-60
2022/10/29 07:56:25;;;;;;;;;15.00;12.00;;;;;18.91;63.44;101010.34;4974875;28;46101;-63
2022/10/29 07:58:50;;;;;;;;;20.75;17.25;;;;;18.95;63.09;101026.25;4973968;28;45581;-65
2022/10/29 08:01:16;;;;;;;;;13.50;13.00;;;;;18.98;62.97;101032.41;4974297;28;45381;-63
2022/10/29 08:03:41;;;;;;;;;12.75;12.75;;;;;18.78;62.80;101009.66;4983866;28;45454;-63
2022/10/29 08:06:07;;;;;;;;;17.75;16.00;;;;;18.60;62.39;100998.88;4959360;28;46563;-64
2022/10/29 08:08:33;;;;;;;;;15.75;13.00;;;;;18.87;62.98;101037.00;4947396;28;45473;-62
2022/10/29 08:11:03;;;;;;;;;11.00;9.60;;;;;18.88;62.62;101045.09;4982532;28;45374;-64
2022/10/29 08:13:28;;;;;;;;;14.40;12.20;;;;;18.93;62.71;101058.19;4974202;28;45232;-65
2022/10/29 08:15:54;;;;;;;;;12.00;12.00;;;;;18.94;62.46;101044.03;4974972;28;45283;-62
2022/10/29 08:18:19;;;;;;;;;14.00;10.75;;;;;19.03;62.35;101052.78;4974077;28;45742;-63
2022/10/29 08:20:45;;;;;;;;;13.75;12.75;;;;;19.02;61.86;101055.78;4974930;28;45391;-63
2022/10/29 08:23:12;;;;;;;;;13.40;12.00;;;;;19.00;62.16;101038.53;4975409;28;45281;-62
2022/10/29 08:25:40;;;;;;;;;11.00;10.60;;;;;19.12;62.22;101049.53;4974477;28;45500;-62
2022/10/29 08:28:06;;;;;;;;;9.60;9.00;;;;;19.16;62.11;101059.88;4974936;28;45542;-64
2022/10/29 08:30:31;;;;;;;;;15.80;12.60;;;;;19.21;61.83;101064.66;4975787;28;45347;-63
2022/10/29 08:32:57;;;;;;;;;13.50;11.50;;;;;19.19;61.45;101055.72;4976649;28;45514;-62
2022/10/29 08:35:23;;;;;;;;;12.75;10.50;;;;;19.10;61.35;101035.88;4977436;28;45353;-63
2022/10/29 08:37:48;;;;;;;;;13.50;12.25;;;;;19.25;61.53;101064.97;4977830;28;45224;-63
2022/10/29 08:40:45;;;;;;;;;14.00;13.25;;;;;19.28;61.36;101053.31;4946601;28;45599;-63
2022/10/29 08:43:46;;;;;;;;;13.20;10.80;;;;;19.30;61.32;101060.31;4973328;28;45604;-63
2022/10/29 08:46:23;;;;;;;;;16.40;12.20;;;;;19.11;61.46;101023.69;4951772;28;59735;-62
2022/10/29 08:48:53;;;;;;;;;14.60;12.60;;;;;19.24;60.95;101041.88;4994801;28;45363;-64
2022/10/29 08:51:29;;;;;;;;;10.60;10.60;;;;;19.34;60.91;101057.81;4996663;28;45473;-64
2022/10/29 08:53:56;;;;;;;;;14.20;11.20;;;;;19.34;61.04;101046.69;4995076;28;45489;-65
2022/10/29 08:56:27;;;;;;;;;11.60;10.60;;;;;19.40;60.77;101045.66;4995877;28;45377;-64
2022/10/29 08:59:00;;;;;;;;;14.20;13.40;;;;;19.46;60.26;101043.72;4926409;28;46086;-69
2022/10/29 09:01:26;;;;;;;;;17.80;13.20;;;;;19.58;60.62;101044.41;4955049;28;45460;-65
2022/10/29 09:03:52;;;;;;;;;12.00;11.25;;;;;19.43;60.35;101006.13;4970695;28;45385;-64
2022/10/29 09:06:26;;;;;;;;;17.25;14.25;;;;;19.57;60.07;101020.47;4974581;28;46009;-64
2022/10/29 09:09:10;;;;;;;;;13.00;10.60;;;;;19.80;60.06;101056.53;4950438;28;45485;-63
2022/10/29 09:12:03;;;;;;;;;15.60;12.60;;;;;19.65;59.79;101041.41;4972553;28;45749;-63
2022/10/29 09:14:38;;;;;;;;;14.60;10.60;;;;;19.80;59.67;101065.72;4965094;28;45418;-65
2022/10/29 09:17:09;;;;;;;;;14.80;12.60;;;;;19.77;60.02;101061.56;4974413;28;46289;-61
2022/10/29 09:19:38;;;;;;;;;15.00;13.40;;;;;19.80;59.74;101065.72;4974611;28;45486;-64
2022/10/29 09:22:23;;;;;;;;;12.80;12.20;;;;;19.80;60.16;101065.72;4976125;28;45344;-64
2022/10/29 09:25:04;;;;;;;;;12.40;11.40;;;;;19.81;59.74;101073.00;4972975;28;45529;-64
2022/10/29 09:27:36;;;;;;;;;14.60;11.80;;;;;19.84;59.37;101063.28;4955628;28;47964;-64
2022/10/29 09:30:03;;;;;;;;;10.00;8.20;;;;;19.87;59.60;101052.44;4964850;28;45461;-64
2022/10/29 09:32:41;;;;;;;;;12.40;9.60;;;;;19.92;59.33;101060.81;4973560;28;45452;-64
2022/10/29 09:35:20;;;;;;;;;11.40;11.40;;;;;19.95;59.29;101050.25;4973440;28;45398;-67
2022/10/29 09:37:56;;;;;;;;;13.40;13.20;;;;;20.07;58.74;101058.44;4975851;28;45494;-62
2022/10/29 09:40:22;;;;;;;;;12.20;10.20;;;;;19.90;58.42;101026.81;4971062;28;45747;-63
2022/10/29 09:42:48;;;;;;;;;10.50;8.25;;;;;20.06;58.57;101035.28;4971907;28;45556;-65
2022/10/29 09:45:15;;;;;;;;;11.00;10.00;;;;;20.28;58.02;101059.41;4972968;28;45442;-64
2022/10/29 09:47:52;;;;;;;;;12.60;11.40;;;;;20.11;57.92;101015.00;4947743;28;47644;-64
2022/10/29 09:50:45;;;;;;;;;11.20;10.20;;;;;20.16;57.67;101003.88;4972185;28;45426;-64
2022/10/29 09:53:14;;;;;;;;;14.00;10.60;;;;;20.54;56.78;101045.59;4956443;28;46984;-63
2022/10/29 09:55:42;;;;;;;;;15.40;10.40;;;;;20.10;56.76;100977.94;4974478;28;45894;-63
2022/10/29 09:58:28;;;;;;;;;10.80;9.80;;;;;20.56;56.53;101046.97;4974225;28;45476;-66
2022/10/29 10:00:55;;;;;;;;;12.40;9.00;;;;;20.61;56.53;101050.91;4973080;28;45499;-65
2022/10/29 10:03:37;;;;;;;;;12.80;10.20;;;;;20.63;56.64;101057.91;4974824;28;45470;-65
2022/10/29 10:06:05;;;;;;;;;10.60;9.80;;;;;20.68;57.46;101048.72;4957251;28;45705;-65
2022/10/29 10:08:30;;;;;;;;;12.20;9.80;;;;;20.71;56.68;101051.78;4975035;28;46665;-64
2022/10/29 10:10:56;;;;;;;;;12.50;12.50;;;;;20.10;55.95;100947.28;4974241;28;45370;-64
2022/10/29 10:13:24;;;;;;;;;12.25;10.00;;;;;20.80;55.83;101037.31;4955505;28;45313;-64
2022/10/29 10:15:54;;;;;;;;;10.80;9.40;;;;;20.76;55.32;101027.84;4969022;28;45282;-62
2022/10/29 10:18:24;;;;;;;;;9.60;7.40;;;;;20.88;55.44;101036.81;4941585;28;47269;-65
2022/10/29 10:21:12;;;;;;;;;8.80;8.20;;;;;20.62;55.23;100992.09;4975312;28;45966;-64
2022/10/29 10:23:51;;;;;;;;;9.80;8.20;;;;;21.07;54.91;101036.31;4972676;28;46334;-64
2022/10/29 10:26:43;;;;;;;;;10.60;8.40;;;;;21.25;55.32;101037.75;4975388;28;45564;-66
2022/10/29 10:29:22;;;;;;;;;9.60;9.20;;;;;21.48;53.58;101030.78;4973424;28;46361;-65
2022/10/29 10:31:48;;;;;;;;;11.40;11.00;;;;;21.70;53.66;101026.88;4987515;28;45385;-68
2022/10/29 10:34:22;;;;;;;;;2.20;2.20;;;;;21.72;53.84;101016.25;4953768;28;45694;-63
2022/10/29 10:37:02;;;;;;;;;13.60;12.40;;;;;21.82;53.61;101023.78;4951139;28;45375;-64
2022/10/29 10:39:38;;;;;;;;;13.60;13.00;;;;;21.92;53.03;101012.59;4964920;28;46430;-65
2022/10/29 10:42:33;;;;;;;;;13.20;11.80;;;;;22.66;52.29;101019.66;4945640;28;45457;-65
2022/10/29 10:45:32;;;;;;;;;14.20;11.80;;;;;24.14;48.81;100980.69;4973718;28;45517;-67
2022/10/29 10:47:58;;;;;;;;;14.60;11.40;;;;;25.83;44.94;100991.63;4969742;28;45789;-67
2022/10/29 10:50:28;;;;;;;;;12.00;10.50;;;;;26.62;43.91;101011.44;4968249;28;46461;-67
2022/10/29 10:52:55;;;;;;;;;10.40;10.00;;;;;27.91;40.70;101000.22;4975407;28;45729;-67
2022/10/29 10:55:27;;;;;;;;;14.00;13.60;;;;;28.79;39.41;100994.84;4957716;28;45520;-66
2022/10/29 10:58:05;;;;;;;;;15.00;11.00;;;;;28.05;40.27;100980.38;4973844;28;45683;-65
2022/10/29 11:00:35;;;;;;;;;14.80;12.60;;;;;27.06;41.42;100971.66;4972256;28;47560;-63
2022/10/29 11:03:19;;;;;;;;;10.20;9.20;;;;;26.48;42.65;100983.34;4972498;28;45485;-64
2022/10/29 11:05:51;;;;;;;;;13.80;13.20;;;;;26.18;42.90;100981.97;4962683;28;45878;-65
2022/10/29 11:08:35;;;;;;;;;11.80;11.80;;;;;26.22;42.13;100961.38;4968464;28;45404;-64
2022/10/29 11:11:07;;;;;;;;;14.20;14.00;;;;;26.38;42.48;100972.31;5005079;28;46899;-63
2022/10/29 11:13:33;;;;;;;;;10.40;10.40;;;;;26.34;42.86;100976.88;4971829;28;45490;-62
2022/10/29 11:16:26;;;;;;;;;12.00;10.00;;;;;26.09;43.41;100985.50;4972804;28;45631;-61
2022/10/29 11:18:55;;;;;;;;;13.60;10.00;;;;;26.08;43.22;100989.47;4960447;28;45415;-61